createdAt,value
2019-05-30T00:01:01.906Z,99.90
2019-05-30T00:03:02.305Z,99.90
2019-05-30T00:05:27.494Z,99.90
2019-05-30T00:07:56.223Z,99.90
2019-05-30T00:10:51.222Z,99.90
2019-05-30T00:12:49.174Z,99.90
2019-05-30T00:15:16.584Z,99.90
2019-05-30T00:17:43.294Z,99.90
2019-05-30T00:20:06.713Z,99.90
2019-05-30T00:22:31.787Z,99.90
2019-05-30T00:25:28.030Z,99.90
2019-05-30T00:27:29.909Z,99.90
2019-05-30T00:30:24.655Z,99.90
2019-05-30T00:32:22.307Z,99.90
2019-05-30T00:34:47.962Z,99.90
2019-05-30T00:37:16.881Z,99.90
2019-05-30T00:39:51.964Z,99.90
2019-05-30T00:42:19.034Z,99.90
2019-05-30T00:45:20.808Z,99.90
2019-05-30T00:47:12.157Z,99.90
2019-05-30T00:49:37.789Z,99.60
2019-05-30T00:52:05.289Z,99.30
2019-05-30T00:54:32.119Z,98.80
2019-05-30T00:56:58.583Z,98.70
2019-05-30T00:59:52.893Z,98.80
2019-05-30T01:01:52.860Z,98.60
2019-05-30T01:04:19.121Z,98.90
2019-05-30T01:06:46.646Z,98.70
2019-05-30T01:09:40.916Z,99.00
2019-05-30T01:11:41.781Z,99.20
2019-05-30T01:14:07.356Z,99.10
2019-05-30T01:16:31.637Z,98.80
2019-05-30T01:18:59.032Z,99.10
2019-05-30T01:21:52.588Z,98.80
2019-05-30T01:24:21.073Z,99.00
2019-05-30T01:27:16.690Z,99.50
2019-05-30T01:28:59.332Z,98.70
2019-05-30T01:31:28.015Z,98.90
2019-05-30T01:33:57.477Z,98.90
2019-05-30T01:36:19.267Z,98.60
2019-05-30T01:38:47.022Z,98.70
2019-05-30T01:41:12.015Z,98.90
2019-05-30T01:43:40.188Z,99.00
2019-05-30T01:46:37.154Z,99.50
2019-05-30T01:49:06.790Z,99.90
2019-05-30T01:51:06.523Z,99.90
2019-05-30T01:53:31.269Z,99.90
2019-05-30T01:56:35.402Z,99.90
2019-05-30T01:58:37.977Z,99.90
2019-05-30T02:01:41.056Z,99.90
2019-05-30T02:03:40.961Z,99.90
2019-05-30T02:06:09.406Z,99.90
2019-05-30T02:08:34.824Z,99.90
2019-05-30T02:11:01.300Z,99.90
2019-05-30T02:13:27.652Z,99.90
2019-05-30T02:15:57.920Z,99.90
2019-05-30T02:18:24.465Z,99.90
2019-05-30T02:20:49.086Z,99.90
2019-05-30T02:23:25.172Z,99.90
2019-05-30T02:25:50.587Z,99.90
2019-05-30T02:28:18.141Z,99.90
2019-05-30T02:30:43.222Z,99.90
2019-05-30T02:33:37.532Z,99.90
2019-05-30T02:36:36.162Z,99.90
2019-05-30T02:41:03.322Z,99.90
2019-05-30T02:41:55.414Z,99.90
2019-05-30T02:43:53.513Z,99.90
2019-05-30T02:46:20.146Z,99.90
2019-05-30T02:48:58.701Z,99.90
2019-05-30T02:51:14.102Z,99.90
2019-05-30T02:53:40.202Z,99.90
2019-05-30T02:56:06.418Z,99.90
2019-05-30T02:58:32.112Z,99.90
2019-05-30T03:02:16.375Z,99.90
2019-05-30T03:04:10.934Z,99.90
2019-05-30T03:06:49.941Z,99.90
2019-05-30T03:08:54.644Z,99.90
2019-05-30T03:11:15.899Z,99.90
2019-05-30T03:13:46.192Z,99.90
2019-05-30T03:16:13.514Z,99.90
2019-05-30T03:18:39.241Z,99.90
2019-05-30T03:21:10.577Z,99.90
2019-05-30T03:24:31.592Z,99.90
2019-05-30T03:34:16.497Z,99.90
2019-05-30T03:37:00.029Z,99.90
2019-05-30T03:39:28.145Z,99.90
2019-05-30T03:42:26.768Z,99.90
2019-05-30T03:44:35.690Z,99.90
2019-05-30T03:47:15.543Z,99.90
2019-05-30T03:50:17.035Z,99.90
2019-05-30T03:52:14.525Z,99.90
2019-05-30T03:54:41.409Z,99.90
2019-05-30T03:57:21.534Z,99.90
2019-05-30T04:00:19.123Z,99.90
2019-05-30T04:03:08.958Z,99.90
2019-05-30T04:06:20.314Z,99.90
2019-05-30T04:07:26.057Z,99.90
2019-05-30T04:10:15.878Z,99.90
2019-05-30T04:38:25.253Z,99.90
2019-05-30T04:40:17.689Z,99.90
2019-05-30T04:41:25.621Z,98.60
2019-05-30T04:44:22.895Z,97.80
2019-05-30T04:46:22.553Z,98.80
2019-05-30T04:51:07.581Z,98.50
2019-05-30T04:54:05.478Z,98.40
2019-05-30T04:56:53.458Z,98.30
2019-05-30T04:58:02.301Z,96.70
2019-05-30T05:00:32.180Z,95.20
2019-05-30T05:02:55.368Z,93.40
2019-05-30T05:05:58.244Z,92.20
2019-05-30T05:07:55.085Z,91.20
2019-05-30T05:10:23.849Z,91.30
2019-05-30T05:13:20.441Z,91.40
2019-05-30T05:16:29.549Z,90.00
2019-05-30T05:17:50.110Z,89.60
2019-05-30T05:20:25.837Z,86.70
2019-05-30T05:22:55.002Z,87.60
2019-05-30T05:25:21.498Z,84.40
2019-05-30T05:27:50.261Z,84.40
2019-05-30T05:30:55.835Z,82.90
2019-05-30T05:32:59.805Z,83.20
2019-05-30T05:35:38.428Z,81.50
2019-05-30T05:38:05.202Z,87.80
2019-05-30T05:40:33.944Z,90.30
2019-05-30T05:43:18.877Z,88.40
2019-05-30T05:45:52.309Z,88.10
2019-05-30T05:49:00.780Z,88.70
2019-05-30T05:51:58.939Z,90.10
2019-05-30T05:53:58.754Z,90.20
2019-05-30T05:58:32.070Z,88.90
2019-05-30T05:59:25.629Z,87.60
2019-05-30T06:01:54.622Z,88.00
2019-05-30T06:04:12.824Z,89.00
2019-05-30T06:06:31.439Z,88.30
2019-05-30T06:08:57.469Z,89.00
2019-05-30T06:12:52.274Z,85.80
2019-05-30T06:13:55.602Z,84.60
2019-05-30T06:16:28.394Z,84.00
2019-05-30T06:18:46.902Z,82.50
2019-05-30T06:21:14.506Z,83.70
2019-05-30T06:24:06.901Z,83.90
2019-05-30T06:26:17.771Z,83.60
2019-05-30T06:29:24.293Z,83.30
2019-05-30T06:31:24.546Z,84.10
2019-05-30T06:33:52.182Z,82.90
2019-05-30T06:36:14.122Z,83.70
2019-05-30T06:38:39.820Z,84.50
2019-05-30T06:41:32.506Z,84.40
2019-05-30T06:43:57.792Z,85.00
2019-05-30T06:46:26.197Z,84.60
2019-05-30T06:49:01.830Z,85.30
2019-05-30T06:51:27.565Z,86.90
2019-05-30T06:54:15.861Z,85.70
2019-05-30T06:57:06.007Z,86.20
2019-05-30T06:59:19.318Z,84.60
2019-05-30T07:02:10.651Z,83.70
2019-05-30T07:04:13.839Z,81.00
2019-05-30T07:07:06.470Z,78.00
2019-05-30T07:09:36.586Z,75.70
2019-05-30T07:12:15.069Z,76.10
2019-05-30T07:14:14.248Z,73.50
2019-05-30T07:16:43.777Z,71.90
2019-05-30T07:19:11.979Z,73.70
2019-05-30T07:21:39.554Z,74.80
2019-05-30T07:24:06.790Z,74.70
2019-05-30T07:26:36.785Z,71.40
2019-05-30T07:29:32.142Z,72.00
2019-05-30T07:31:34.374Z,70.00
2019-05-30T07:33:58.495Z,71.70
2019-05-30T07:36:26.331Z,68.20
2019-05-30T07:38:50.376Z,69.00
2019-05-30T07:41:18.199Z,70.60
2019-05-30T07:44:11.719Z,70.20
2019-05-30T07:46:09.960Z,72.20
2019-05-30T07:48:35.750Z,73.10
2019-05-30T07:51:11.671Z,69.90
2019-05-30T07:53:37.085Z,75.20
2019-05-30T07:56:11.625Z,72.20
2019-05-30T07:58:38.993Z,69.50
2019-05-30T08:01:09.272Z,69.50
2019-05-30T08:03:35.054Z,71.10
2019-05-30T08:06:02.180Z,72.00
2019-05-30T08:08:41.109Z,71.10
2019-05-30T08:11:17.783Z,66.00
2019-05-30T08:13:43.472Z,67.50
2019-05-30T08:16:10.528Z,65.10
2019-05-30T08:18:37.977Z,64.70
2019-05-30T08:21:02.311Z,67.90
2019-05-30T08:23:28.191Z,70.70
2019-05-30T08:25:54.719Z,69.50
2019-05-30T08:28:50.536Z,74.00
2019-05-30T08:30:56.803Z,74.50
2019-05-30T08:33:21.820Z,77.70
2019-05-30T08:35:52.922Z,80.20
2019-05-30T08:38:22.764Z,84.70
2019-05-30T08:41:26.052Z,86.60
2019-05-30T08:44:04.606Z,87.50
2019-05-30T08:46:30.140Z,91.10
2019-05-30T08:49:04.590Z,90.00
2019-05-30T08:51:32.287Z,91.00
2019-05-30T08:54:36.445Z,89.10
2019-05-30T08:56:36.734Z,87.30
2019-05-30T08:59:02.586Z,83.70
2019-05-30T09:01:42.152Z,78.50
2019-05-30T09:04:37.962Z,77.30
2019-05-30T09:06:34.148Z,77.30
2019-05-30T09:08:59.283Z,80.60
2019-05-30T09:12:06.350Z,78.00
2019-05-30T09:14:08.175Z,77.40
2019-05-30T09:16:35.737Z,75.40
2019-05-30T09:19:41.481Z,78.40
2019-05-30T09:22:09.700Z,75.90
2019-05-30T09:25:04.347Z,75.70
2019-05-30T09:27:03.484Z,74.40
2019-05-30T09:29:58.996Z,76.80
2019-05-30T09:31:59.091Z,77.00
2019-05-30T09:34:26.524Z,76.00
2019-05-30T09:36:52.478Z,74.90
2019-05-30T09:39:18.494Z,74.80
2019-05-30T09:41:56.561Z,75.90
2019-05-30T09:44:23.424Z,81.40
2019-05-30T09:47:17.351Z,81.10
2019-05-30T09:49:20.430Z,79.80
2019-05-30T09:51:46.914Z,78.70
2019-05-30T09:54:15.840Z,78.60
2019-05-30T09:56:42.060Z,81.00
2019-05-30T09:59:09.159Z,79.20
2019-05-30T10:03:01.984Z,79.20
2019-05-30T10:04:07.287Z,78.40
2019-05-30T10:07:01.337Z,79.70
2019-05-30T10:09:03.322Z,78.10
2019-05-30T10:11:28.703Z,79.70
2019-05-30T10:14:21.905Z,78.40
2019-05-30T10:16:21.519Z,76.80
2019-05-30T10:18:52.700Z,77.30
2019-05-30T10:21:20.286Z,74.20
2019-05-30T10:23:47.201Z,75.00
2019-05-30T10:26:42.029Z,76.80
2019-05-30T10:28:40.704Z,75.10
2019-05-30T10:31:05.924Z,72.80
2019-05-30T10:34:02.573Z,73.60
2019-05-30T10:36:00.429Z,71.30
2019-05-30T10:38:25.840Z,71.80
2019-05-30T10:40:52.575Z,67.90
2019-05-30T10:43:28.289Z,70.00
2019-05-30T10:45:57.494Z,71.60
2019-05-30T10:51:21.870Z,68.90
2019-05-30T10:52:16.512Z,70.40
2019-05-30T10:54:12.791Z,69.50
2019-05-30T10:56:38.029Z,69.20
2019-05-30T10:59:09.034Z,66.00
2019-05-30T11:01:37.030Z,64.20
2019-05-30T11:04:05.284Z,65.80
2019-05-30T11:06:39.999Z,65.70
2019-05-30T11:09:00.614Z,65.50
2019-05-30T11:11:29.186Z,63.10
2019-05-30T11:13:51.352Z,58.90
2019-05-30T11:16:48.883Z,62.80
2019-05-30T11:18:48.927Z,58.90
2019-05-30T11:21:13.274Z,62.00
2019-05-30T11:23:39.374Z,62.60
2019-05-30T11:26:05.800Z,62.60
2019-05-30T11:28:33.105Z,60.10
2019-05-30T11:31:04.130Z,59.30
2019-05-30T11:34:24.721Z,58.30
2019-05-30T11:36:06.056Z,56.90
2019-05-30T11:38:33.730Z,56.40
2019-05-30T11:41:26.112Z,59.30
2019-05-30T11:46:51.926Z,57.80
2019-05-30T11:47:43.950Z,57.70
2019-05-30T11:50:39.114Z,60.30
2019-05-30T11:52:14.601Z,65.40
2019-05-30T11:54:49.863Z,59.20
2019-05-30T11:57:34.217Z,57.30
2019-05-30T12:00:11.878Z,60.20
2019-05-30T12:03:08.092Z,61.80
2019-05-30T12:05:08.114Z,64.70
2019-05-30T12:08:54.732Z,68.10
2019-05-30T12:10:59.384Z,66.50
2019-05-30T12:13:53.129Z,65.70
2019-05-30T12:15:53.463Z,67.20
2019-05-30T12:19:23.376Z,67.50
2019-05-30T12:21:01.872Z,67.50
2019-05-30T12:23:25.471Z,67.60
2019-05-30T12:25:53.911Z,67.70
2019-05-30T12:28:18.522Z,64.60
2019-05-30T12:30:55.815Z,66.80
2019-05-30T12:33:13.823Z,64.20
2019-05-30T12:36:20.582Z,63.60
2019-05-30T12:38:16.915Z,62.40
2019-05-30T12:40:43.347Z,60.50
2019-05-30T12:43:09.593Z,62.90
2019-05-30T12:45:36.627Z,64.60
2019-05-30T12:48:04.290Z,66.60
2019-05-30T12:50:59.345Z,67.00
2019-05-30T12:52:57.637Z,60.80
2019-05-30T12:55:26.323Z,58.20
2019-05-30T12:57:51.930Z,56.40
2019-05-30T13:00:30.586Z,56.30
2019-05-30T13:02:49.547Z,57.80
2019-05-30T13:05:14.665Z,56.40
2019-05-30T13:08:21.891Z,59.80
2019-05-30T13:10:19.168Z,57.70
2019-05-30T13:12:43.177Z,57.90
2019-05-30T13:15:19.992Z,58.90
2019-05-30T13:17:45.373Z,58.80
2019-05-30T13:20:11.370Z,59.20
2019-05-30T13:22:59.087Z,58.90
2019-05-30T13:25:25.371Z,61.20
2019-05-30T13:27:53.386Z,59.30
2019-05-30T13:30:46.876Z,62.10
2019-05-30T13:32:46.096Z,62.90
2019-05-30T13:35:13.298Z,64.80
2019-05-30T13:38:07.283Z,68.20
2019-05-30T13:40:24.295Z,65.50
2019-05-30T13:42:42.888Z,66.10
2019-05-30T13:45:10.799Z,64.80
2019-05-30T13:47:34.834Z,64.40
2019-05-30T13:50:44.441Z,64.00
2019-05-30T13:52:50.874Z,64.90
2019-05-30T13:56:42.534Z,64.70
2019-05-30T13:58:17.560Z,67.70
2019-05-30T14:00:26.029Z,68.20
2019-05-30T14:05:14.511Z,66.60
2019-05-30T14:08:41.604Z,70.20
2019-05-30T14:10:31.975Z,74.90
2019-05-30T14:13:07.242Z,78.40
2019-05-30T14:15:35.048Z,79.90
2019-05-30T14:18:40.717Z,81.20
2019-05-30T14:20:42.442Z,76.60
2019-05-30T14:23:32.808Z,74.10
2019-05-30T14:28:04.177Z,74.60
2019-05-30T14:31:24.411Z,73.20
2019-05-30T14:33:36.489Z,68.20
2019-05-30T14:36:55.383Z,72.10
2019-05-30T14:38:59.175Z,73.50
2019-05-30T14:40:58.999Z,69.00
2019-05-30T14:44:25.974Z,68.80
2019-05-30T14:47:06.390Z,71.40
2019-05-30T14:48:38.793Z,67.80
2019-05-30T14:51:43.956Z,66.00
2019-05-30T14:54:42.125Z,66.80
2019-05-30T14:57:12.979Z,70.80
2019-05-30T14:58:43.852Z,70.70
2019-05-30T15:01:09.393Z,71.10
2019-05-30T15:04:42.190Z,77.30
2019-05-30T15:06:24.825Z,78.60
2019-05-30T15:08:50.147Z,78.80
2019-05-30T15:11:17.161Z,74.00
2019-05-30T15:13:43.894Z,74.20
2019-05-30T15:16:09.557Z,72.60
2019-05-30T15:18:46.134Z,72.30
2019-05-30T15:21:22.575Z,65.90
2019-05-30T15:23:48.346Z,58.70
2019-05-30T15:26:25.394Z,55.20
2019-05-30T15:29:01.786Z,54.80
2019-05-30T15:31:27.805Z,55.00
2019-05-30T15:33:57.885Z,59.20
2019-05-30T15:36:19.986Z,59.70
2019-05-30T15:38:46.267Z,64.30
2019-05-30T15:41:41.379Z,68.30
2019-05-30T15:43:41.691Z,68.10
2019-05-30T15:46:07.858Z,68.20
2019-05-30T15:48:36.162Z,68.20
2019-05-30T15:51:01.665Z,67.40
2019-05-30T15:54:01.040Z,62.90
2019-05-30T15:55:59.894Z,58.10
2019-05-30T15:58:58.229Z,55.60
2019-05-30T16:00:53.370Z,59.70
2019-05-30T16:03:49.858Z,63.00
2019-05-30T16:06:01.366Z,60.00
2019-05-30T16:08:23.143Z,59.30
2019-05-30T16:11:01.881Z,55.90
2019-05-30T16:13:32.265Z,54.40
2019-05-30T16:15:58.453Z,53.60
2019-05-30T16:18:26.049Z,54.10
2019-05-30T16:20:53.268Z,55.50
2019-05-30T16:23:49.705Z,55.20
2019-05-30T16:26:01.269Z,53.30
2019-05-30T16:28:28.991Z,54.60
2019-05-30T16:31:22.295Z,53.70
2019-05-30T16:33:20.038Z,53.80
2019-05-30T16:36:28.222Z,52.20
2019-05-30T16:38:30.708Z,52.90
2019-05-30T16:41:22.623Z,51.70
2019-05-30T16:44:07.000Z,49.60
2019-05-30T16:45:52.110Z,51.00
2019-05-30T16:48:18.293Z,53.50
2019-05-30T16:51:44.692Z,57.40
2019-05-30T16:53:25.985Z,56.30
2019-05-30T16:55:53.810Z,58.00
2019-05-30T16:58:20.337Z,57.20
2019-05-30T17:01:15.750Z,57.20
2019-05-30T17:04:12.243Z,55.90
2019-05-30T17:06:13.084Z,58.70
2019-05-30T17:08:24.304Z,61.60
2019-05-30T17:10:47.900Z,67.10
2019-05-30T17:13:15.682Z,71.70
2019-05-30T17:15:45.867Z,74.70
2019-05-30T17:18:12.129Z,80.00
2019-05-30T17:20:38.149Z,84.30
2019-05-30T17:23:05.528Z,86.20
2019-05-30T17:25:40.915Z,87.30
2019-05-30T17:28:09.378Z,89.10
2019-05-30T17:30:36.425Z,90.30
2019-05-30T17:33:10.525Z,91.10
2019-05-30T17:35:37.057Z,91.10
2019-05-30T17:38:04.614Z,91.10
2019-05-30T17:40:44.989Z,91.20
2019-05-30T17:43:07.873Z,91.80
2019-05-30T17:46:00.058Z,91.80
2019-05-30T17:48:23.863Z,91.60
2019-05-30T17:50:51.132Z,91.40
2019-05-30T17:53:19.737Z,91.40
2019-05-30T17:56:18.308Z,91.80
2019-05-30T17:58:13.618Z,91.90
2019-05-30T18:01:08.055Z,92.10
2019-05-30T18:03:40.886Z,92.30
2019-05-30T18:05:41.211Z,92.90
2019-05-30T18:08:08.705Z,93.10
2019-05-30T18:10:35.597Z,93.60
2019-05-30T18:14:17.315Z,93.60
2019-05-30T18:16:07.897Z,94.10
2019-05-30T18:18:31.770Z,94.10
2019-05-30T18:20:48.316Z,94.30
2019-05-30T18:23:37.451Z,94.40
2019-05-30T18:26:18.459Z,94.80
2019-05-30T18:28:28.103Z,95.20
2019-05-30T18:31:21.903Z,95.50
2019-05-30T18:33:19.975Z,95.80
2019-05-30T18:35:46.149Z,96.00
2019-05-30T18:38:11.661Z,96.70
2019-05-30T18:42:25.433Z,96.80
2019-05-30T18:44:22.742Z,97.00
2019-05-30T18:47:16.679Z,97.40
2019-05-30T18:49:44.417Z,97.60
2019-05-30T18:51:43.738Z,97.80
2019-05-30T18:54:42.910Z,98.00
2019-05-30T18:56:42.357Z,98.00
2019-05-30T18:59:09.477Z,98.10
2019-05-30T19:01:37.936Z,98.20
2019-05-30T19:04:06.160Z,98.40
2019-05-30T19:08:00.250Z,98.70
2019-05-30T19:09:37.454Z,98.80
2019-05-30T19:11:35.334Z,99.00
2019-05-30T19:14:07.719Z,99.00
2019-05-30T19:16:36.690Z,99.20
2019-05-30T19:19:05.809Z,99.30
2019-05-30T19:21:59.502Z,99.50
2019-05-30T19:23:57.776Z,99.50
2019-05-30T19:26:24.458Z,99.70
2019-05-30T19:28:49.289Z,99.90
2019-05-30T19:31:15.834Z,99.90
2019-05-30T19:34:10.909Z,99.90
2019-05-30T19:36:10.177Z,99.90
2019-05-30T19:39:14.793Z,99.90
2019-05-30T19:41:23.742Z,99.90
2019-05-30T19:43:49.370Z,99.90
2019-05-30T19:46:15.349Z,99.90
2019-05-30T19:49:47.828Z,99.90
2019-05-30T19:51:21.833Z,99.90
2019-05-30T19:53:48.513Z,99.90
2019-05-30T19:56:33.350Z,99.90
2019-05-30T20:01:13.837Z,99.90
2019-05-30T20:03:46.637Z,99.90
2019-05-30T20:06:36.674Z,99.90
2019-05-30T20:08:53.462Z,99.90
2019-05-30T20:11:37.190Z,99.90
2019-05-30T20:16:57.228Z,99.90
2019-05-30T20:17:54.206Z,99.90
2019-05-30T20:19:58.763Z,99.90
2019-05-30T20:22:54.165Z,99.90
2019-05-30T20:24:53.631Z,99.90
2019-05-30T20:27:20.929Z,99.90
2019-05-30T20:30:14.489Z,99.90
2019-05-30T20:32:51.286Z,99.90
2019-05-30T20:35:27.693Z,99.90
2019-05-30T20:37:54.016Z,99.90
2019-05-30T20:40:22.713Z,99.90
2019-05-30T20:42:45.826Z,99.90
2019-05-30T20:45:12.477Z,99.90
2019-05-30T20:47:40.237Z,99.90
2019-05-30T20:50:09.908Z,99.90
2019-05-30T20:52:38.269Z,99.90
2019-05-30T20:55:01.500Z,99.90
2019-05-30T20:57:28.606Z,99.90
2019-05-30T20:59:55.635Z,99.90
2019-05-30T21:02:39.066Z,99.90
2019-05-30T21:04:50.934Z,99.90
2019-05-30T21:07:57.040Z,99.90
2019-05-30T21:09:54.898Z,99.90
2019-05-30T21:12:37.685Z,99.90
2019-05-30T21:17:46.775Z,99.90
2019-05-30T21:18:39.706Z,99.90
2019-05-30T21:21:10.195Z,99.90
2019-05-30T21:23:09.354Z,99.90
2019-05-30T21:26:03.245Z,99.90
2019-05-30T21:28:13.907Z,99.90
2019-05-30T21:31:12.518Z,99.90
2019-05-30T21:33:09.580Z,99.90
2019-05-30T21:35:35.074Z,99.90
2019-05-30T21:38:00.964Z,99.90
2019-05-30T21:40:28.673Z,99.90
2019-05-30T21:43:09.915Z,99.90
2019-05-30T21:45:51.050Z,99.90
2019-05-30T21:47:50.518Z,99.90
2019-05-30T21:53:10.512Z,99.90
2019-05-30T21:54:03.589Z,99.90
2019-05-30T21:56:01.983Z,99.90
2019-05-30T21:58:27.085Z,99.90
2019-05-30T22:01:18.800Z,99.90
2019-05-30T22:03:31.254Z,99.90
2019-05-30T22:06:26.004Z,99.90
2019-05-30T22:08:27.702Z,99.90
2019-05-30T22:10:53.881Z,99.90
2019-05-30T22:13:19.924Z,99.90
2019-05-30T22:17:12.099Z,99.90
2019-05-30T22:18:18.298Z,99.90
2019-05-30T22:20:43.805Z,99.90
2019-05-30T22:23:35.225Z,99.90
2019-05-30T22:26:01.113Z,99.90
2019-05-30T22:28:25.344Z,99.90
2019-05-30T22:31:20.047Z,99.90
2019-05-30T22:33:48.750Z,99.90
2019-05-30T22:35:47.207Z,99.90
2019-05-30T22:38:12.911Z,99.90
2019-05-30T22:40:39.845Z,99.90
2019-05-30T22:43:07.894Z,99.90
2019-05-30T22:46:02.689Z,99.90
2019-05-30T22:48:03.793Z,99.90
2019-05-30T22:50:28.399Z,99.90
2019-05-30T22:52:54.306Z,99.90
2019-05-30T22:55:54.318Z,99.90
2019-05-30T22:57:52.600Z,99.90
2019-05-30T23:00:19.187Z,99.90
2019-05-30T23:03:03.127Z,99.90
2019-05-30T23:05:28.666Z,99.90
2019-05-30T23:07:55.565Z,99.90
2019-05-30T23:10:22.273Z,99.90
2019-05-30T23:12:48.124Z,99.90
2019-05-30T23:15:14.157Z,99.90
2019-05-30T23:17:40.523Z,99.90
2019-05-30T23:20:38.882Z,99.90
2019-05-30T23:22:41.385Z,99.90
2019-05-30T23:25:39.914Z,99.90
2019-05-30T23:27:36.594Z,99.90
2019-05-30T23:30:03.623Z,99.90
2019-05-30T23:32:28.172Z,99.90
2019-05-30T23:34:58.618Z,99.90
2019-05-30T23:37:52.967Z,99.90
2019-05-30T23:39:55.366Z,99.90
2019-05-30T23:42:48.951Z,99.90
2019-05-30T23:44:57.920Z,99.90
2019-05-30T23:47:51.631Z,99.90
2019-05-30T23:49:51.734Z,99.90
2019-05-30T23:52:26.044Z,99.90
2019-05-30T23:55:48.513Z,99.90
2019-05-30T23:57:50.329Z,99.90
2019-05-30T23:59:50.534Z,99.90
